KNSO2: Flint Creek

                                SHEF ID:       KNSO2     Flint Creek near Kansas, OK
STATION TYPE:
Regulating: Stage = 11.00, Flow = 7610

PRECIP PRECIP(A) STAGE RIV-FLOW VOLTAGE
in in ft cfs volt
Ccp-Rev Ccp-Rev Ccp-Rev Ccp-Rev Ccp-Rev
(America/Chicago)
04/25 00:00 0.00 ---- 7.19 671 12.10
04/25 01:00 0.00 ---- 7.17 650 12.10
04/25 02:00 0.00 ---- 7.14 619 12.10
04/25 03:00 0.00 ---- 7.13 609 12.10
04/25 04:00 0.00 ---- 7.11 589 12.10
04/25 05:00 0.00 ---- 7.09 569 12.00
04/25 06:00 0.00 ---- 7.07 550 12.00
04/25 07:00 0.00 ---- 7.06 540 12.00
04/25 08:00 0.00 ---- 7.04 521 12.10
04/25 09:00 0.00 ---- 7.02 502 12.10
04/25 10:00 0.00 ---- 7.01 493 12.40
04/25 11:00 0.00 ---- 7.00 484 12.50
04/25 12:00 0.00 ---- 6.98 465 12.60
04/25 13:00 0.00 ---- 6.97 455 12.60
04/25 14:00 0.00 ---- 6.96 445 12.50
04/25 15:00 0.00 ---- 6.95 435 12.50
04/25 16:00 0.00 ---- 6.94 425 12.50
04/25 17:00 0.00 ---- 6.93 416 12.40
04/25 18:00 0.02 ---- 6.92 407 12.20
04/25 19:00 0.03 ---- 6.91 398 12.10
04/25 20:00 0.02 ---- 6.91 398 12.10
04/25 21:00 0.00 ---- 6.91 398 12.10
04/25 22:00 0.79 ---- 6.97 455 12.10
04/25 23:00 0.01 ---- 6.98 465 12.10
Data processed at Sun 26Apr2026 04:35 GMT

NOTICE: If you are parsing this page

Please convert to using our Data API. Starting early 2026 we will be migrating to: https://water.usace.army.mil with modern pages rendered in JavaScript. When this migration completes you will no longer be able to scrape this page! CWMSDataAPI (CDA)

Timeseries IDs (TSIDs)

TSIDs used from left to right in the data table
KANS.Precip-Inc.Total.1Hour.1Hour.Ccp-Rev
KANS.Precip-Inc Alt.Total.1Hour.1Hour.Ccp-Rev
KANS.Stage.Inst.1Hour.0.Ccp-Rev
KANS.Flow.Inst.1Hour.0.Ccp-Rev
KANS.Volt-Battery.Inst.1Hour.0.Ccp-Rev

                            

All information presented herein is the property of the government of the United States of America and may be revised or deleted at any time without prior notice. Dissemination of this information without the expressed written consent of the Public Affairs Office, Tulsa District U.S. Army Corps of Engineers is strictly prohibited. These data are gathered electronically and, as presented, have NOT undergone any form of quality control. These data are NOT guaranteed to be valid or correct.